createdAt,value
2023-01-31T00:00:38.622Z,77.18
2023-01-31T00:03:09.362Z,76.81
2023-01-31T00:05:37.461Z,77.08
2023-01-31T00:08:09.751Z,76.37
2023-01-31T00:10:39.438Z,78.32
2023-01-31T00:13:09.205Z,79.35
2023-01-31T00:15:38.335Z,79.37
2023-01-31T00:18:07.683Z,79.42
2023-01-31T00:20:39.553Z,80.97
2023-01-31T00:23:07.562Z,81.74
2023-01-31T00:25:40.241Z,80.98
2023-01-31T00:28:10.058Z,81.13
2023-01-31T00:30:38.229Z,80.46
2023-01-31T00:33:06.328Z,79.89
2023-01-31T00:35:43.347Z,79.20
2023-01-31T00:38:16.119Z,80.54
2023-01-31T00:40:44.285Z,80.49
2023-01-31T00:43:20.353Z,81.09
2023-01-31T00:45:50.903Z,81.70
2023-01-31T00:48:20.881Z,80.61
2023-01-31T00:50:48.954Z,80.85
2023-01-31T00:53:18.632Z,80.93
2023-01-31T00:55:46.876Z,80.73
2023-01-31T00:58:16.705Z,80.59
2023-01-31T01:00:47.303Z,81.16
2023-01-31T01:03:17.570Z,82.06
2023-01-31T01:05:46.442Z,81.71
2023-01-31T01:08:19.940Z,82.06
2023-01-31T01:10:50.015Z,82.23
2023-01-31T01:13:23.428Z,82.07
2023-01-31T01:15:55.601Z,82.26
2023-01-31T01:18:24.554Z,81.78
2023-01-31T01:20:53.227Z,82.44
2023-01-31T01:23:23.027Z,82.50
2023-01-31T01:25:59.229Z,82.57
2023-01-31T01:29:02.616Z,82.32
2023-01-31T01:31:31.581Z,82.71
2023-01-31T01:34:03.233Z,83.25
2023-01-31T01:36:34.636Z,83.30
2023-01-31T01:39:04.288Z,83.33
2023-01-31T01:41:35.068Z,82.94
2023-01-31T01:44:26.785Z,83.03
2023-01-31T01:46:58.622Z,81.95
2023-01-31T01:50:36.145Z,82.29
2023-01-31T01:53:12.370Z,81.93
2023-01-31T01:55:46.391Z,82.17
2023-01-31T02:06:17.755Z,81.27
2023-01-31T02:08:46.445Z,80.89
2023-01-31T02:11:23.822Z,80.34
2023-01-31T02:14:02.452Z,80.79
2023-01-31T02:16:31.555Z,80.54
2023-01-31T02:19:01.638Z,81.83
2023-01-31T02:22:02.277Z,81.31
2023-01-31T02:25:15.930Z,80.94
2023-01-31T02:35:09.168Z,81.45
2023-01-31T03:10:52.209Z,81.27
2023-01-31T03:13:36.804Z,80.63
2023-01-31T03:16:40.045Z,80.50
2023-01-31T03:19:16.752Z,80.19
2023-01-31T03:21:48.826Z,79.70
2023-01-31T03:24:19.479Z,79.64
2023-01-31T03:26:50.751Z,78.52
2023-01-31T03:29:20.453Z,78.88
2023-01-31T03:31:57.085Z,79.08
2023-01-31T03:34:26.563Z,78.56
2023-01-31T03:36:58.674Z,78.55
2023-01-31T03:39:40.177Z,78.61
2023-01-31T03:42:22.512Z,78.89
2023-01-31T03:49:05.254Z,78.42
2023-01-31T03:51:36.021Z,79.59
2023-01-31T04:02:04.541Z,79.45
2023-01-31T04:04:37.892Z,79.91
2023-01-31T04:07:06.579Z,79.89
2023-01-31T04:09:47.433Z,80.33
2023-01-31T04:12:17.579Z,80.34
2023-01-31T04:14:46.369Z,80.27
2023-01-31T04:17:20.289Z,80.91
2023-01-31T04:19:48.747Z,80.63
2023-01-31T04:22:19.773Z,80.70
2023-01-31T04:24:49.334Z,81.11
2023-01-31T04:27:20.319Z,80.87
2023-01-31T04:29:49.526Z,80.79
2023-01-31T04:32:19.169Z,80.69
2023-01-31T04:34:47.345Z,80.06
2023-01-31T04:37:15.859Z,80.10
2023-01-31T04:39:44.240Z,79.91
2023-01-31T04:42:12.521Z,79.87
2023-01-31T04:44:45.527Z,80.68
2023-01-31T04:47:14.790Z,80.13
2023-01-31T04:49:45.494Z,80.20
2023-01-31T04:52:13.736Z,79.62
2023-01-31T04:54:42.224Z,80.27
2023-01-31T04:57:10.294Z,80.16
2023-01-31T04:59:38.581Z,79.88
2023-01-31T05:02:08.693Z,80.18
2023-01-31T05:04:38.478Z,79.77
2023-01-31T05:07:08.903Z,79.71
2023-01-31T05:09:37.210Z,79.98
2023-01-31T05:12:07.972Z,80.14
2023-01-31T05:14:37.494Z,80.33
2023-01-31T05:17:07.625Z,80.29
2023-01-31T05:19:36.152Z,80.82
2023-01-31T05:22:05.098Z,80.21
2023-01-31T05:24:36.739Z,80.46
2023-01-31T05:27:05.445Z,80.94
2023-01-31T05:29:34.346Z,81.10
2023-01-31T05:32:04.235Z,81.49
2023-01-31T05:34:34.054Z,81.28
2023-01-31T05:37:03.630Z,81.75
2023-01-31T05:39:33.789Z,81.47
2023-01-31T05:42:03.167Z,81.71
2023-01-31T05:44:33.253Z,81.41
2023-01-31T05:47:02.565Z,81.65
2023-01-31T05:49:33.673Z,81.03
2023-01-31T05:52:03.156Z,81.23
2023-01-31T05:54:31.489Z,80.67
2023-01-31T05:57:02.623Z,80.87
2023-01-31T05:59:34.297Z,80.73
2023-01-31T06:02:05.920Z,80.50
2023-01-31T06:04:33.975Z,81.24
2023-01-31T06:07:04.509Z,80.44
2023-01-31T06:09:33.254Z,80.70
2023-01-31T06:12:03.011Z,80.65
2023-01-31T06:14:33.476Z,80.72
2023-01-31T06:17:01.697Z,80.68
2023-01-31T06:19:29.896Z,80.78
2023-01-31T06:22:02.627Z,80.36
2023-01-31T06:24:34.563Z,80.10
2023-01-31T06:27:04.383Z,79.92
2023-01-31T06:29:35.265Z,80.42
2023-01-31T06:32:03.876Z,80.02
2023-01-31T06:34:32.938Z,79.80
2023-01-31T06:37:10.727Z,80.10
2023-01-31T06:39:39.041Z,80.04
2023-01-31T06:42:07.271Z,80.15
2023-01-31T06:44:38.452Z,80.50
2023-01-31T06:47:09.404Z,79.92
2023-01-31T06:49:39.520Z,79.76
2023-01-31T06:52:10.409Z,79.92
2023-01-31T06:54:39.455Z,79.77
2023-01-31T06:57:09.722Z,79.74
2023-01-31T06:59:40.390Z,80.21
2023-01-31T07:02:09.865Z,79.82
2023-01-31T07:04:39.244Z,80.48
2023-01-31T07:07:10.559Z,79.87
2023-01-31T07:09:38.824Z,80.64
2023-01-31T07:12:08.389Z,80.62
2023-01-31T07:14:41.208Z,80.36
2023-01-31T07:17:11.537Z,80.29
2023-01-31T07:19:40.214Z,80.00
2023-01-31T07:22:11.689Z,79.67
2023-01-31T07:24:40.047Z,80.02
2023-01-31T07:27:08.489Z,80.41
2023-01-31T07:29:38.499Z,80.12
2023-01-31T07:32:15.547Z,79.70
2023-01-31T07:34:44.054Z,79.49
2023-01-31T07:37:12.304Z,79.54
2023-01-31T07:39:42.124Z,79.41
2023-01-31T07:42:10.882Z,79.12
2023-01-31T07:44:40.661Z,78.77
2023-01-31T07:47:13.663Z,78.42
2023-01-31T07:49:42.115Z,78.40
2023-01-31T07:52:13.705Z,77.98
2023-01-31T07:54:44.213Z,77.34
2023-01-31T07:57:13.951Z,77.24
2023-01-31T07:59:42.220Z,77.71
2023-01-31T08:02:33.239Z,77.83
2023-01-31T08:05:01.376Z,78.23
2023-01-31T08:07:33.857Z,77.22
2023-01-31T08:10:03.265Z,77.21
2023-01-31T08:12:33.411Z,78.23
2023-01-31T08:15:05.301Z,77.97
2023-01-31T08:17:37.749Z,78.18
2023-01-31T08:20:09.591Z,78.67
2023-01-31T08:22:37.872Z,78.32
2023-01-31T08:25:06.927Z,78.61
2023-01-31T08:27:37.132Z,79.08
2023-01-31T08:30:07.726Z,79.53
2023-01-31T08:32:37.902Z,80.06
2023-01-31T08:35:07.773Z,79.88
2023-01-31T08:37:40.739Z,80.46
2023-01-31T08:40:10.154Z,80.32
2023-01-31T08:42:42.791Z,79.97
2023-01-31T08:45:11.994Z,79.71
2023-01-31T08:47:42.425Z,79.87
2023-01-31T08:50:26.803Z,79.98
2023-01-31T08:53:08.909Z,79.24
2023-01-31T08:55:48.842Z,79.71
2023-01-31T08:58:20.489Z,78.74
2023-01-31T09:00:52.991Z,78.37
2023-01-31T09:03:25.246Z,77.55
2023-01-31T09:05:54.124Z,78.23
2023-01-31T09:08:24.218Z,78.38
2023-01-31T09:10:54.510Z,78.45
2023-01-31T09:13:32.359Z,79.47
2023-01-31T09:16:02.914Z,79.35
2023-01-31T09:18:34.979Z,79.57
2023-01-31T09:21:07.705Z,79.54
2023-01-31T09:23:39.292Z,79.19
2023-01-31T09:26:12.996Z,79.09
2023-01-31T09:28:45.819Z,79.51
2023-01-31T09:31:16.499Z,80.60
2023-01-31T09:33:46.860Z,80.65
2023-01-31T09:36:20.314Z,80.19
2023-01-31T09:38:49.719Z,80.33
2023-01-31T09:41:25.830Z,78.77
2023-01-31T09:44:01.989Z,80.65
2023-01-31T09:46:37.558Z,80.06
2023-01-31T09:49:17.776Z,79.54
2023-01-31T09:51:51.795Z,80.32
2023-01-31T09:54:24.505Z,80.25
2023-01-31T09:57:02.774Z,80.09
2023-01-31T09:59:43.664Z,79.64
2023-01-31T10:02:41.987Z,81.01
2023-01-31T10:05:32.887Z,80.08
2023-01-31T10:08:12.514Z,79.91
2023-01-31T10:10:44.779Z,79.15
2023-01-31T10:13:18.895Z,79.25
2023-01-31T10:15:54.490Z,79.54
2023-01-31T10:18:35.628Z,79.86
2023-01-31T10:21:12.578Z,79.71
2023-01-31T10:23:46.503Z,79.28
2023-01-31T10:26:21.469Z,79.31
2023-01-31T10:29:02.177Z,79.54
2023-01-31T10:31:34.039Z,78.36
2023-01-31T10:34:10.135Z,78.13
2023-01-31T10:36:44.725Z,77.74
2023-01-31T10:39:23.928Z,77.96
2023-01-31T10:42:06.846Z,78.17
2023-01-31T10:44:49.039Z,78.06
2023-01-31T10:47:19.710Z,77.53
2023-01-31T10:49:50.544Z,77.92
2023-01-31T10:52:48.683Z,76.88
2023-01-31T10:55:44.169Z,76.94
2023-01-31T10:58:16.434Z,76.33
2023-01-31T11:00:47.503Z,75.53
2023-01-31T11:03:21.934Z,75.45
2023-01-31T11:05:53.108Z,74.76
2023-01-31T11:08:44.225Z,75.03
2023-01-31T11:11:17.386Z,75.30
2023-01-31T11:14:03.447Z,74.71
2023-01-31T11:16:37.758Z,74.94
2023-01-31T11:19:21.748Z,74.84
2023-01-31T11:22:10.728Z,74.73
2023-01-31T11:24:44.139Z,74.75
2023-01-31T11:27:24.617Z,74.48
2023-01-31T11:29:55.177Z,74.51
2023-01-31T11:32:28.876Z,74.97
2023-01-31T11:35:03.727Z,74.62
2023-01-31T11:37:35.026Z,74.15
2023-01-31T11:40:27.010Z,75.04
2023-01-31T11:43:00.152Z,74.51
2023-01-31T11:45:31.786Z,75.42
2023-01-31T11:48:12.367Z,75.47
2023-01-31T11:50:42.769Z,75.45
2023-01-31T11:53:21.670Z,75.62
2023-01-31T11:55:56.809Z,75.58
2023-01-31T11:58:34.809Z,75.96
2023-01-31T12:01:08.102Z,75.57
2023-01-31T12:03:37.327Z,75.63
2023-01-31T12:06:09.952Z,75.34
2023-01-31T12:08:42.135Z,74.67
2023-01-31T12:11:30.792Z,74.35
2023-01-31T12:14:10.745Z,75.50
2023-01-31T12:16:40.179Z,76.38
2023-01-31T12:19:23.170Z,75.46
2023-01-31T12:22:04.567Z,75.06
2023-01-31T12:24:45.948Z,75.79
2023-01-31T12:27:32.287Z,75.69
2023-01-31T12:30:34.440Z,75.86
2023-01-31T12:33:34.157Z,75.84
2023-01-31T12:36:22.395Z,76.01
2023-01-31T12:39:14.298Z,75.19
2023-01-31T12:41:48.493Z,75.86
2023-01-31T12:44:40.762Z,74.34
2023-01-31T12:47:31.422Z,75.07
2023-01-31T12:50:14.387Z,75.95
2023-01-31T12:52:53.842Z,76.41
2023-01-31T12:55:30.946Z,76.06
2023-01-31T12:58:12.829Z,76.66
2023-01-31T13:00:50.887Z,77.00
2023-01-31T13:03:34.120Z,76.66
2023-01-31T13:06:08.277Z,77.01
2023-01-31T13:08:48.596Z,76.71
2023-01-31T13:11:31.050Z,76.68
2023-01-31T13:14:06.373Z,76.38
2023-01-31T13:16:40.140Z,77.18
2023-01-31T13:19:17.775Z,77.68
2023-01-31T13:21:51.915Z,77.01
2023-01-31T13:24:24.434Z,77.84
2023-01-31T13:27:02.264Z,77.45
2023-01-31T13:29:34.912Z,76.54
2023-01-31T13:32:11.724Z,77.58
2023-01-31T13:34:51.511Z,76.67
2023-01-31T13:37:21.659Z,76.56
2023-01-31T13:39:57.651Z,77.42
2023-01-31T13:42:25.611Z,76.43
2023-01-31T13:44:55.851Z,77.07
2023-01-31T13:47:29.630Z,77.78
2023-01-31T13:50:02.596Z,78.15
2023-01-31T13:52:36.403Z,78.08
2023-01-31T13:55:13.672Z,78.45
2023-01-31T13:57:50.372Z,80.03
2023-01-31T14:00:34.577Z,80.00
2023-01-31T14:03:09.276Z,80.29
2023-01-31T14:06:07.473Z,81.00
2023-01-31T14:08:59.386Z,80.54
2023-01-31T14:11:45.343Z,80.63
2023-01-31T14:14:24.166Z,80.18
2023-01-31T14:16:57.443Z,81.67
2023-01-31T14:20:08.916Z,81.06
2023-01-31T14:22:43.086Z,82.45
2023-01-31T14:25:16.163Z,82.89
2023-01-31T14:27:48.081Z,83.43
2023-01-31T14:30:28.451Z,84.82
2023-01-31T14:33:08.496Z,85.31
2023-01-31T14:36:06.278Z,86.77
2023-01-31T14:38:53.050Z,87.19
2023-01-31T14:41:35.079Z,87.60
2023-01-31T14:44:22.595Z,88.00
2023-01-31T14:47:25.972Z,89.13
2023-01-31T14:50:27.923Z,89.38
2023-01-31T14:53:40.429Z,88.87
2023-01-31T14:56:24.396Z,89.08
2023-01-31T14:58:53.060Z,89.47
2023-01-31T15:01:26.410Z,89.10
2023-01-31T15:03:59.407Z,89.31
2023-01-31T15:06:30.683Z,89.91
2023-01-31T15:09:21.472Z,89.76
2023-01-31T15:11:55.277Z,90.28
2023-01-31T15:14:37.885Z,89.99
2023-01-31T15:17:27.661Z,89.77
2023-01-31T15:20:15.074Z,89.52
2023-01-31T15:25:35.949Z,89.48
2023-01-31T15:28:06.815Z,89.84
2023-01-31T15:30:37.732Z,90.21
2023-01-31T15:33:09.433Z,89.71
2023-01-31T15:35:50.539Z,89.54
2023-01-31T15:38:28.236Z,89.22
2023-01-31T15:41:25.813Z,89.64
2023-01-31T15:43:56.899Z,89.27
2023-01-31T15:46:32.345Z,89.33
2023-01-31T15:49:01.721Z,89.27
2023-01-31T15:51:32.237Z,88.58
2023-01-31T15:54:06.120Z,88.38
2023-01-31T15:56:40.503Z,88.36
2023-01-31T15:59:15.621Z,88.65
2023-01-31T16:01:50.128Z,88.73
2023-01-31T16:04:23.176Z,87.90
2023-01-31T16:06:52.769Z,88.67
2023-01-31T16:09:36.215Z,88.16
2023-01-31T16:12:07.185Z,88.25
2023-01-31T16:14:37.081Z,88.37
2023-01-31T16:17:07.506Z,88.34
2023-01-31T16:19:36.683Z,88.47
2023-01-31T16:22:05.186Z,88.53
2023-01-31T16:24:36.820Z,88.13
2023-01-31T16:27:10.318Z,87.15
2023-01-31T16:29:49.128Z,87.54
2023-01-31T16:32:21.301Z,87.42
2023-01-31T16:34:58.433Z,86.31
2023-01-31T16:37:36.680Z,87.08
2023-01-31T16:40:20.031Z,86.94
2023-01-31T16:42:52.918Z,86.97
2023-01-31T16:45:30.378Z,86.71
2023-01-31T16:48:18.112Z,86.40
2023-01-31T16:50:46.494Z,86.89
2023-01-31T16:53:22.876Z,86.69
2023-01-31T16:56:20.216Z,86.63
2023-01-31T16:59:00.090Z,85.66
2023-01-31T17:01:31.328Z,87.04
2023-01-31T17:04:16.743Z,86.89
2023-01-31T17:06:49.687Z,87.34
2023-01-31T17:09:24.154Z,88.10
2023-01-31T17:11:56.715Z,86.84
2023-01-31T17:14:27.451Z,86.27
2023-01-31T17:17:04.666Z,85.83
2023-01-31T17:19:35.477Z,85.88
2023-01-31T17:22:05.589Z,85.12
2023-01-31T17:24:34.012Z,86.37
2023-01-31T17:27:03.818Z,86.83
2023-01-31T17:29:33.291Z,86.24
2023-01-31T17:32:03.431Z,86.91
2023-01-31T17:34:32.856Z,87.48
2023-01-31T17:37:01.093Z,86.77
2023-01-31T17:39:29.156Z,87.19
2023-01-31T17:41:59.058Z,87.33
2023-01-31T17:44:28.168Z,86.53
2023-01-31T17:47:02.839Z,87.71
2023-01-31T17:49:32.856Z,87.15
2023-01-31T17:52:02.163Z,87.15
2023-01-31T17:54:33.475Z,86.83
2023-01-31T17:57:01.460Z,86.49
2023-01-31T17:59:31.277Z,86.52
2023-01-31T18:02:09.184Z,86.83
2023-01-31T18:04:38.946Z,86.09
2023-01-31T18:07:10.673Z,85.81
2023-01-31T18:09:38.928Z,86.26
2023-01-31T18:12:07.673Z,84.86
2023-01-31T18:14:37.090Z,85.39
2023-01-31T18:17:07.144Z,85.06
2023-01-31T18:19:38.583Z,85.62
2023-01-31T18:22:07.202Z,85.26
2023-01-31T18:24:37.251Z,85.37
2023-01-31T18:27:06.732Z,84.17
2023-01-31T18:29:37.865Z,85.25
2023-01-31T18:32:10.694Z,84.83
2023-01-31T18:34:39.371Z,85.02
2023-01-31T18:37:19.313Z,84.88
2023-01-31T18:39:49.320Z,86.25
2023-01-31T18:42:19.064Z,86.38
2023-01-31T18:44:47.815Z,87.22
2023-01-31T18:47:18.406Z,86.69
2023-01-31T18:49:49.650Z,86.06
2023-01-31T18:52:17.847Z,86.41
2023-01-31T18:54:48.966Z,86.02
2023-01-31T18:57:21.492Z,87.31
2023-01-31T18:59:50.420Z,87.19
2023-01-31T19:02:21.624Z,87.21
2023-01-31T19:04:50.579Z,88.09
2023-01-31T19:07:21.117Z,88.35
2023-01-31T19:09:52.727Z,87.60
2023-01-31T19:12:22.821Z,89.18
2023-01-31T19:14:56.263Z,88.37
2023-01-31T19:17:25.685Z,88.91
2023-01-31T19:19:53.766Z,88.27
2023-01-31T19:22:28.591Z,87.98
2023-01-31T19:24:59.974Z,88.35
2023-01-31T19:27:29.600Z,89.28
2023-01-31T19:30:00.161Z,88.45
2023-01-31T19:32:32.951Z,88.29
2023-01-31T19:35:02.883Z,88.79
2023-01-31T19:37:31.581Z,88.71
2023-01-31T19:39:59.494Z,88.50
2023-01-31T19:42:28.089Z,87.79
2023-01-31T19:45:03.725Z,86.78
2023-01-31T19:47:37.214Z,86.67
2023-01-31T19:50:06.962Z,86.43
2023-01-31T19:52:35.287Z,86.71
2023-01-31T19:55:04.780Z,87.05
2023-01-31T19:57:32.752Z,86.19
2023-01-31T20:00:01.639Z,86.18
2023-01-31T20:02:29.897Z,85.92
2023-01-31T20:05:01.445Z,86.07
2023-01-31T20:07:30.179Z,85.96
2023-01-31T20:09:59.003Z,86.52
2023-01-31T20:12:28.128Z,85.94
2023-01-31T20:15:01.179Z,85.42
2023-01-31T20:17:31.761Z,84.88
2023-01-31T20:20:02.783Z,85.44
2023-01-31T20:22:30.876Z,85.82
2023-01-31T20:25:01.081Z,85.39
2023-01-31T20:27:34.285Z,84.89
2023-01-31T20:30:02.428Z,85.69
2023-01-31T20:32:31.039Z,85.13
2023-01-31T20:35:02.258Z,84.66
2023-01-31T20:37:30.088Z,84.17
2023-01-31T20:39:58.888Z,85.16
2023-01-31T20:42:31.579Z,84.37
2023-01-31T20:44:59.826Z,84.75
2023-01-31T20:47:29.081Z,84.25
2023-01-31T20:49:56.945Z,84.18
2023-01-31T20:52:31.107Z,85.62
2023-01-31T20:54:59.259Z,85.69
2023-01-31T20:57:28.191Z,85.84
2023-01-31T20:59:58.010Z,86.82
2023-01-31T21:02:26.900Z,86.75
2023-01-31T21:04:57.135Z,87.50
2023-01-31T21:07:28.422Z,87.71
2023-01-31T21:10:01.928Z,88.22
2023-01-31T21:12:31.781Z,88.46
2023-01-31T21:17:53.332Z,88.45
2023-01-31T21:20:23.153Z,87.95
2023-01-31T21:22:53.265Z,88.47
2023-01-31T21:25:22.817Z,88.06
2023-01-31T21:27:52.840Z,87.71
2023-01-31T21:30:22.092Z,87.51
2023-01-31T21:32:52.128Z,88.02
2023-01-31T21:35:23.576Z,88.60
2023-01-31T21:37:53.388Z,88.29
2023-01-31T21:40:24.581Z,88.58
2023-01-31T21:42:54.747Z,88.40
2023-01-31T21:45:40.067Z,88.59
2023-01-31T21:48:28.823Z,89.27
2023-01-31T21:50:59.786Z,88.33
2023-01-31T21:53:29.413Z,88.78
2023-01-31T21:56:02.320Z,89.03
2023-01-31T21:58:32.544Z,88.86
2023-01-31T22:01:05.956Z,88.77
2023-01-31T22:03:35.776Z,89.43
2023-01-31T22:06:05.245Z,89.07
2023-01-31T22:08:36.774Z,88.98
2023-01-31T22:11:07.221Z,88.46
2023-01-31T22:13:38.460Z,88.74
2023-01-31T22:16:11.361Z,89.58
2023-01-31T22:18:42.562Z,89.53
2023-01-31T22:21:13.539Z,88.44
2023-01-31T22:23:48.245Z,89.02
2023-01-31T22:26:18.710Z,89.46
2023-01-31T22:28:47.737Z,88.40
2023-01-31T22:31:19.881Z,89.15
2023-01-31T22:33:48.796Z,89.32
2023-01-31T22:36:18.858Z,88.33
2023-01-31T22:38:48.557Z,88.87
2023-01-31T22:41:20.143Z,88.66
2023-01-31T22:43:50.017Z,88.63
2023-01-31T22:46:22.155Z,88.68
2023-01-31T22:48:51.525Z,88.50
2023-01-31T22:51:25.984Z,88.28
2023-01-31T22:53:59.974Z,89.25
2023-01-31T22:56:35.691Z,88.77
2023-01-31T22:59:07.342Z,88.89
2023-01-31T23:01:38.579Z,88.57
2023-01-31T23:04:09.167Z,88.67
2023-01-31T23:06:41.762Z,88.45
2023-01-31T23:09:11.178Z,89.48
2023-01-31T23:11:41.794Z,89.13
2023-01-31T23:14:09.670Z,88.31
2023-01-31T23:16:55.245Z,89.04
2023-01-31T23:19:24.579Z,88.43
2023-01-31T23:21:52.659Z,89.15
2023-01-31T23:24:22.074Z,88.18
2023-01-31T23:26:50.057Z,88.72
2023-01-31T23:29:19.211Z,89.63
2023-01-31T23:31:47.449Z,88.64
2023-01-31T23:34:15.475Z,90.37
2023-01-31T23:36:44.943Z,89.18
2023-01-31T23:39:17.351Z,88.99
2023-01-31T23:41:47.438Z,89.54
2023-01-31T23:44:18.895Z,89.66
2023-01-31T23:46:47.811Z,89.30
2023-01-31T23:49:17.625Z,89.39
2023-01-31T23:51:45.897Z,89.41
2023-01-31T23:54:14.023Z,88.66
2023-01-31T23:56:44.819Z,88.69
2023-01-31T23:59:14.427Z,88.12
